Cochise, AZ (85606)

8:06 PM MST on November 23, 2014 (GMT -0700)
Blacktail Bajada | Change Station
CLOSE
Current Station
Personal Weather Station
Location: Cochise, AZ
Elevation: 4592 ft
Nearby Weather Stations

Elev 4592 ft 31.97 °N, 109.94 °W | Updated 35 seconds ago

Clear
Clear
48.2 °F
Feels Like 43 °F
N
12.3
Wind Variable Wind from NNW
Gusts 14.5 mph

Today
High -- | Low -- °F
--% Chance of Precip.
Yesterday
High -- | Low -- °F
Precip. -- in
6:55 AM 5:16 PM
Waxing Crescent, 3% visible
Pressure 30.08 in
Visibility 10.0 miles
Clouds Clear
Windchill 43 °F
Dew Point 8 °F
Humidity 19%
Rainfall 0.00 in
Snow Depth Not available.
UV 0 out of 12
Pollen 2.60 out of 12
Air Quality Not available.
Flu Activity Not available.
METAR KFHU 240256Z AUTO 27009KT 10SM CLR 06/M07 A3013 RMK AO2 SLP185 T00611072 53019 $

More Conditions Fewer Conditions

Pressure 30.08 in
Visibility 10.0 miles
Clouds Clear
Windchill 43 °F
Dew Point 8 °F
Humidity 19%
Rainfall 0.00 in
Snow Depth Not available.
UV 0 out of 12
Pollen 2.60 out of 12
Air Quality Not available.
Flu Activity Not available.
METAR KFHU 240256Z AUTO 27009KT 10SM CLR 06/M07 A3013 RMK AO2 SLP185 T00611072 53019 $

More Conditions Fewer Conditions

10-Day Weather Forecast

Almanac

Astronomy

Nov. 23, 2014 Rise Set
Actual Time
Civil Twilight
Nautical Twilight
Astronomical Twilight
Moon
Length of Visible Light
Length of Day
Tomorrow will be .
, % of the Moon is Illuminated

Today's Extremes

State Highs State Lows

Community

WunderPhotos

Upload Photos

1,773,257 photos uploaded!

WunderBlogs® & News

Nearby

Air Quality

  Air Quality AQ Index Pollutant
Not available.

Snow Depth

Station Depth Elevation

Earthquake Activity

City Distance Mag. Time & Date
Minimum magnitude displayed is 2.5.

Coastal Water Temperatures

Place Temperature

Nearby Weather Stations